Terminal Aerodrome Forecast
Issued by NWS Wilmington, NC

Home | Current Version | Previous Version | Text Only | Print | Product List | Glossary On
Versions: 1 2 3 4 5 6 7 8 9 10 11 12 13 14 15 16 17 18 19 20 21 22 23 24 25 26 27 28 29
000
FTUS42 KILM 061300 AAA
TAFFLO
TAF AMD
KFLO 061340Z 0614/0712 02013G19KT P6SM BKN025 BKN045
     FM061500 02014G19KT P6SM BKN050
     FM061700 03012KT P6SM BKN050
     FM062300 03003KT P6SM SCT050=

USA.gov is the U.S. government's official web portal to all federal, state and local government web resources and services.